createdAt,value
2018-09-06T00:00:20.264Z,11.60
2018-09-06T00:02:49.413Z,11.60
2018-09-06T00:05:18.827Z,11.50
2018-09-06T00:07:48.049Z,11.50
2018-09-06T00:10:17.505Z,11.50
2018-09-06T00:12:46.865Z,11.40
2018-09-06T00:15:16.171Z,11.50
2018-09-06T00:17:45.822Z,11.50
2018-09-06T00:20:15.445Z,11.40
2018-09-06T00:22:44.718Z,11.40
2018-09-06T00:25:14.102Z,11.50
2018-09-06T00:27:43.426Z,11.50
2018-09-06T00:30:12.696Z,11.50
2018-09-06T00:32:42.059Z,11.50
2018-09-06T00:35:11.320Z,11.40
2018-09-06T00:37:40.885Z,11.40
2018-09-06T00:40:10.936Z,11.40
2018-09-06T00:42:40.581Z,11.40
2018-09-06T00:45:09.733Z,11.50
2018-09-06T00:47:39.221Z,11.60
2018-09-06T00:50:13.537Z,11.60
2018-09-06T00:52:42.772Z,11.70
2018-09-06T00:55:12.067Z,11.70
2018-09-06T00:57:41.127Z,11.70
2018-09-06T01:00:10.460Z,11.60
2018-09-06T01:02:39.751Z,11.50
2018-09-06T01:05:09.226Z,11.50
2018-09-06T01:07:38.462Z,11.40
2018-09-06T01:10:08.283Z,11.40
2018-09-06T01:12:37.499Z,11.40
2018-09-06T01:15:06.931Z,11.40
2018-09-06T01:17:36.137Z,11.40
2018-09-06T01:20:05.715Z,11.40
2018-09-06T01:22:35.364Z,11.40
2018-09-06T01:25:04.487Z,11.50
2018-09-06T01:27:33.936Z,11.50
2018-09-06T01:30:03.500Z,11.60
2018-09-06T01:32:32.915Z,11.60
2018-09-06T01:35:02.072Z,11.60
2018-09-06T01:37:31.717Z,11.60
2018-09-06T01:40:00.900Z,11.60
2018-09-06T01:42:30.551Z,11.60
2018-09-06T01:45:00.059Z,11.60
2018-09-06T01:47:30.283Z,11.60
2018-09-06T01:49:59.876Z,11.70
2018-09-06T01:52:29.197Z,11.70
2018-09-06T01:54:58.663Z,11.70
2018-09-06T01:57:28.043Z,11.60
2018-09-06T01:59:57.508Z,11.50
2018-09-06T02:02:26.648Z,11.50
2018-09-06T02:04:55.881Z,11.30
2018-09-06T02:07:25.169Z,11.40
2018-09-06T02:09:54.489Z,11.40
2018-09-06T02:12:23.775Z,11.40
2018-09-06T02:14:53.459Z,11.40
2018-09-06T02:17:22.640Z,11.30
2018-09-06T02:19:51.755Z,11.20
2018-09-06T02:22:20.895Z,11.10
2018-09-06T02:24:50.242Z,11.10
2018-09-06T02:27:19.675Z,11.00
2018-09-06T02:29:49.145Z,10.90
2018-09-06T02:32:18.355Z,10.90
2018-09-06T02:34:47.575Z,10.90
2018-09-06T02:37:16.971Z,10.90
2018-09-06T02:39:46.699Z,10.90
2018-09-06T02:42:15.839Z,10.90
2018-09-06T02:44:45.184Z,10.90
2018-09-06T02:47:14.189Z,10.60
2018-09-06T02:50:48.128Z,10.50
2018-09-06T02:53:17.773Z,10.40
2018-09-06T02:55:47.192Z,10.50
2018-09-06T02:58:16.748Z,10.50
2018-09-06T03:00:46.121Z,10.60
2018-09-06T03:03:15.127Z,10.60
2018-09-06T03:05:44.595Z,10.60
2018-09-06T03:08:13.864Z,10.70
2018-09-06T03:10:44.428Z,10.70
2018-09-06T03:13:13.734Z,10.60
2018-09-06T03:15:43.027Z,10.50
2018-09-06T03:18:12.390Z,10.50
2018-09-06T03:20:41.825Z,10.50
2018-09-06T03:23:11.116Z,10.50
2018-09-06T03:25:40.668Z,10.60
2018-09-06T03:28:09.956Z,10.60
2018-09-06T03:30:39.441Z,10.50
2018-09-06T03:33:09.141Z,10.60
2018-09-06T03:35:38.372Z,10.60
2018-09-06T03:38:08.074Z,10.60
2018-09-06T03:40:37.177Z,10.50
2018-09-06T03:43:06.560Z,10.40
2018-09-06T03:45:35.665Z,10.40
2018-09-06T03:48:05.158Z,10.50
2018-09-06T03:50:34.180Z,10.50
2018-09-06T03:53:04.360Z,10.30
2018-09-06T03:55:33.557Z,10.30
2018-09-06T03:58:02.885Z,10.30
2018-09-06T04:00:32.291Z,10.20
2018-09-06T04:03:01.468Z,10.20
2018-09-06T04:05:30.853Z,10.20
2018-09-06T04:07:59.998Z,10.20
2018-09-06T04:10:29.423Z,10.40
2018-09-06T04:12:58.962Z,10.30
2018-09-06T04:15:28.199Z,10.30
2018-09-06T04:17:57.576Z,10.30
2018-09-06T04:20:26.947Z,10.40
2018-09-06T04:22:56.773Z,10.50
2018-09-06T04:25:26.277Z,10.40
2018-09-06T04:27:55.705Z,10.40
2018-09-06T04:30:25.089Z,10.50
2018-09-06T04:32:54.575Z,10.50
2018-09-06T04:35:23.771Z,10.70
2018-09-06T04:37:53.233Z,10.80
2018-09-06T04:40:22.541Z,11.00
2018-09-06T04:42:51.793Z,11.00
2018-09-06T04:45:21.092Z,11.00
2018-09-06T04:47:50.603Z,11.00
2018-09-06T04:50:20.217Z,11.00
2018-09-06T04:52:49.568Z,11.00
2018-09-06T04:55:19.108Z,11.10
2018-09-06T04:57:48.452Z,11.10
2018-09-06T05:00:17.717Z,11.10
2018-09-06T05:02:46.832Z,11.20
2018-09-06T05:05:16.112Z,11.20
2018-09-06T05:07:45.410Z,11.20
2018-09-06T05:10:14.793Z,11.20
2018-09-06T05:12:43.984Z,11.20
2018-09-06T05:15:13.157Z,11.30
2018-09-06T05:17:42.608Z,11.50
2018-09-06T05:20:11.841Z,11.60
2018-09-06T05:22:41.209Z,11.70
2018-09-06T05:25:10.640Z,11.70
2018-09-06T05:27:40.250Z,11.80
2018-09-06T05:30:09.741Z,11.70
2018-09-06T05:32:38.984Z,11.70
2018-09-06T05:35:08.522Z,11.80
2018-09-06T05:37:37.714Z,11.90
2018-09-06T05:40:07.110Z,11.90
2018-09-06T05:42:36.471Z,11.90
2018-09-06T05:45:05.991Z,12.00
2018-09-06T05:47:35.556Z,12.10
2018-09-06T05:50:05.378Z,12.30
2018-09-06T05:52:34.789Z,12.50
2018-09-06T05:55:04.819Z,12.70
2018-09-06T05:57:34.113Z,12.90
2018-09-06T06:00:07.681Z,13.00
2018-09-06T06:02:36.917Z,13.00
2018-09-06T06:05:06.486Z,13.00
2018-09-06T06:07:46.344Z,13.00
2018-09-06T06:10:15.916Z,13.30
2018-09-06T06:12:45.217Z,13.60
2018-09-06T06:15:14.492Z,13.80
2018-09-06T06:17:43.620Z,14.00
2018-09-06T06:20:13.116Z,14.00
2018-09-06T06:22:42.703Z,14.40
2018-09-06T06:25:12.048Z,14.50
2018-09-06T06:27:42.074Z,14.50
2018-09-06T06:30:11.140Z,14.40
2018-09-06T06:32:40.756Z,14.40
2018-09-06T06:35:10.172Z,14.50
2018-09-06T06:37:39.406Z,14.70
2018-09-06T06:40:08.732Z,14.70
2018-09-06T06:42:38.048Z,14.60
2018-09-06T06:45:07.620Z,14.80
2018-09-06T06:47:36.935Z,15.00
2018-09-06T06:50:06.188Z,15.20
2018-09-06T06:52:35.407Z,15.00
2018-09-06T06:55:04.452Z,15.10
2018-09-06T06:57:33.763Z,15.30
2018-09-06T07:00:03.175Z,15.30
2018-09-06T07:02:32.417Z,15.40
2018-09-06T07:05:01.680Z,15.40
2018-09-06T07:07:31.300Z,15.40
2018-09-06T07:10:00.778Z,15.40
2018-09-06T07:12:30.172Z,15.50
2018-09-06T07:14:59.948Z,15.60
2018-09-06T07:17:29.424Z,15.50
2018-09-06T07:19:59.581Z,15.50
2018-09-06T07:22:29.008Z,15.40
2018-09-06T07:24:58.236Z,15.40
2018-09-06T07:27:27.520Z,15.40
2018-09-06T07:29:56.916Z,15.30
2018-09-06T07:32:26.302Z,15.40
2018-09-06T07:34:55.708Z,15.40
2018-09-06T07:37:25.219Z,15.30
2018-09-06T07:39:54.808Z,15.30
2018-09-06T07:42:24.008Z,15.20
2018-09-06T07:44:53.624Z,15.20
2018-09-06T07:47:23.518Z,15.30
2018-09-06T07:49:52.856Z,15.30
2018-09-06T07:52:21.914Z,15.30
2018-09-06T07:54:51.120Z,15.20
2018-09-06T07:57:20.318Z,15.20
2018-09-06T07:59:49.812Z,15.30
2018-09-06T08:02:18.898Z,15.50
2018-09-06T08:04:48.316Z,15.60
2018-09-06T08:07:17.651Z,15.80
2018-09-06T08:09:46.971Z,16.00
2018-09-06T08:12:16.478Z,16.00
2018-09-06T08:14:45.923Z,16.10
2018-09-06T08:17:15.147Z,16.20
2018-09-06T08:19:44.580Z,16.00
2018-09-06T08:22:13.751Z,16.10
2018-09-06T08:24:42.910Z,16.50
2018-09-06T08:27:12.067Z,16.70
2018-09-06T08:29:41.953Z,17.00
2018-09-06T08:32:11.243Z,17.10
2018-09-06T08:34:40.488Z,17.10
2018-09-06T08:37:10.489Z,17.30
2018-09-06T08:39:39.723Z,17.60
2018-09-06T08:42:09.045Z,17.60
2018-09-06T08:44:38.232Z,17.90
2018-09-06T08:47:07.761Z,18.00
2018-09-06T08:49:36.972Z,18.10
2018-09-06T08:52:06.000Z,18.20
2018-09-06T08:54:35.319Z,18.60
2018-09-06T08:57:04.684Z,18.90
2018-09-06T08:59:33.945Z,18.90
2018-09-06T09:02:07.415Z,19.90
2018-09-06T09:04:36.434Z,20.40
2018-09-06T09:07:05.582Z,20.30
2018-09-06T09:09:34.604Z,20.40
2018-09-06T09:12:03.941Z,20.50
2018-09-06T09:14:33.246Z,19.90
2018-09-06T09:17:02.399Z,19.50
2018-09-06T09:19:31.692Z,18.70
2018-09-06T09:22:00.855Z,19.00
2018-09-06T09:24:30.281Z,19.30
2018-09-06T09:26:59.383Z,19.40
2018-09-06T09:29:29.403Z,18.90
2018-09-06T09:31:58.704Z,19.50
2018-09-06T09:34:28.046Z,19.90
2018-09-06T09:36:57.589Z,20.00
2018-09-06T09:39:27.351Z,19.90
2018-09-06T09:41:57.321Z,20.00
2018-09-06T09:44:26.493Z,21.00
2018-09-06T09:49:24.688Z,21.20
2018-09-06T09:51:53.976Z,22.10
2018-09-06T09:54:23.104Z,22.50
2018-09-06T09:56:52.410Z,22.50
2018-09-06T09:59:21.467Z,22.80
2018-09-06T10:01:55.912Z,23.20
2018-09-06T10:04:30.148Z,23.30
2018-09-06T10:07:05.024Z,23.10
2018-09-06T10:09:34.395Z,23.50
2018-09-06T10:12:03.654Z,23.40
2018-09-06T10:14:33.021Z,21.70
2018-09-06T10:17:02.126Z,21.00
2018-09-06T10:19:31.444Z,20.30
2018-09-06T10:22:00.731Z,19.70
2018-09-06T10:24:29.829Z,19.50
2018-09-06T10:26:59.296Z,19.70
2018-09-06T10:29:28.851Z,19.60
2018-09-06T10:31:58.285Z,19.50
2018-09-06T10:34:27.577Z,19.50
2018-09-06T10:36:57.535Z,19.20
2018-09-06T10:39:27.151Z,19.00
2018-09-06T10:41:56.139Z,19.00
2018-09-06T10:44:25.323Z,19.10
2018-09-06T10:46:54.479Z,19.10
2018-09-06T10:49:23.633Z,19.30
2018-09-06T10:51:53.376Z,19.40
2018-09-06T10:54:22.594Z,19.50
2018-09-06T10:56:51.736Z,19.60
2018-09-06T10:59:21.134Z,19.70
2018-09-06T11:01:50.552Z,19.90
2018-09-06T11:04:19.949Z,20.80
2018-09-06T11:06:49.496Z,21.30
2018-09-06T11:09:18.898Z,21.60
2018-09-06T11:11:48.296Z,21.50
2018-09-06T11:14:17.488Z,21.50
2018-09-06T11:16:46.773Z,22.70
2018-09-06T11:19:15.819Z,23.00
2018-09-06T11:21:45.386Z,23.60
2018-09-06T11:24:14.399Z,23.90
2018-09-06T11:26:43.542Z,22.60
2018-09-06T11:29:12.633Z,22.50
2018-09-06T11:31:41.911Z,22.60
2018-09-06T11:34:11.372Z,23.60
2018-09-06T11:36:40.740Z,23.70
2018-09-06T11:39:11.406Z,24.00
2018-09-06T11:41:40.986Z,24.90
2018-09-06T11:44:10.065Z,23.90
2018-09-06T11:46:39.466Z,23.50
2018-09-06T11:49:08.666Z,23.00
2018-09-06T11:51:37.928Z,22.30
2018-09-06T11:54:07.082Z,22.70
2018-09-06T11:56:35.862Z,22.40
2018-09-06T11:59:04.552Z,22.10
2018-09-06T12:01:34.153Z,21.70
2018-09-06T12:04:03.154Z,21.40
2018-09-06T12:06:32.316Z,21.40
2018-09-06T12:09:01.471Z,21.00
2018-09-06T12:11:30.747Z,20.80
2018-09-06T12:14:00.012Z,20.40
2018-09-06T12:16:29.134Z,20.50
2018-09-06T12:18:58.422Z,20.70
2018-09-06T12:21:27.500Z,21.20
2018-09-06T12:23:57.063Z,21.90
2018-09-06T12:26:26.124Z,22.10
2018-09-06T12:28:55.337Z,22.00
2018-09-06T12:31:24.713Z,22.00
2018-09-06T12:33:54.411Z,22.40
2018-09-06T12:36:23.656Z,23.10
2018-09-06T12:38:53.288Z,23.20
2018-09-06T12:41:22.805Z,22.30
2018-09-06T12:43:52.287Z,22.40
2018-09-06T12:46:22.035Z,22.60
2018-09-06T12:48:51.258Z,22.80
2018-09-06T12:51:20.488Z,23.20
2018-09-06T12:53:49.508Z,23.10
2018-09-06T12:56:19.158Z,22.50
2018-09-06T12:58:48.617Z,22.50
2018-09-06T13:01:17.772Z,22.20
2018-09-06T13:03:47.018Z,22.30
2018-09-06T13:06:16.205Z,22.30
2018-09-06T13:08:45.336Z,22.50
2018-09-06T13:11:14.934Z,22.30
2018-09-06T13:13:44.793Z,21.80
2018-09-06T13:16:14.275Z,21.70
2018-09-06T13:18:43.672Z,21.20
2018-09-06T13:21:13.206Z,20.70
2018-09-06T13:23:42.432Z,20.40
2018-09-06T13:26:11.597Z,20.00
2018-09-06T13:28:40.926Z,19.90
2018-09-06T13:31:10.024Z,20.00
2018-09-06T13:33:39.363Z,19.70
2018-09-06T13:36:08.369Z,19.60
2018-09-06T13:38:37.416Z,19.70
2018-09-06T13:41:06.708Z,19.90
2018-09-06T13:43:36.088Z,20.10
2018-09-06T13:46:05.520Z,20.40
2018-09-06T13:48:34.489Z,20.40
2018-09-06T13:51:03.814Z,20.50
2018-09-06T13:53:33.001Z,20.50
2018-09-06T13:56:02.597Z,20.60
2018-09-06T13:58:31.972Z,20.70
2018-09-06T14:01:01.281Z,20.60
2018-09-06T14:03:30.621Z,20.30
2018-09-06T14:06:01.252Z,20.30
2018-09-06T14:08:33.571Z,20.30
2018-09-06T14:11:02.901Z,20.00
2018-09-06T14:13:32.801Z,19.90
2018-09-06T14:16:02.269Z,19.70
2018-09-06T14:18:32.224Z,19.60
2018-09-06T14:21:01.643Z,19.50
2018-09-06T14:23:31.168Z,19.40
2018-09-06T14:26:00.473Z,19.30
2018-09-06T14:28:33.906Z,19.00
2018-09-06T14:31:04.938Z,18.90
2018-09-06T14:33:34.472Z,18.90
2018-09-06T14:36:04.113Z,18.90
2018-09-06T14:38:34.670Z,19.00
2018-09-06T14:41:04.397Z,19.00
2018-09-06T14:43:35.145Z,18.80
2018-09-06T14:46:04.965Z,18.60
2018-09-06T14:48:34.699Z,18.70
2018-09-06T14:51:05.218Z,18.90
2018-09-06T14:53:34.400Z,19.00
2018-09-06T14:56:03.735Z,18.90
2018-09-06T14:58:33.569Z,18.70
2018-09-06T15:01:02.721Z,18.50
2018-09-06T15:03:32.211Z,18.40
2018-09-06T15:06:01.526Z,18.40
2018-09-06T15:08:30.859Z,18.40
2018-09-06T15:11:00.567Z,18.50
2018-09-06T15:13:30.576Z,18.40
2018-09-06T15:16:00.474Z,18.60
2018-09-06T15:18:29.939Z,18.60
2018-09-06T15:20:59.486Z,18.70
2018-09-06T15:23:30.023Z,18.50
2018-09-06T15:25:59.597Z,18.60
2018-09-06T15:28:28.881Z,18.40
2018-09-06T15:30:58.395Z,18.40
2018-09-06T15:33:27.782Z,18.30
2018-09-06T15:35:59.017Z,18.40
2018-09-06T15:38:28.365Z,18.50
2018-09-06T15:40:58.306Z,18.40
2018-09-06T15:43:27.778Z,18.30
2018-09-06T15:45:58.696Z,18.30
2018-09-06T15:48:28.137Z,18.30
2018-09-06T15:51:03.543Z,18.30
2018-09-06T15:53:39.787Z,18.20
2018-09-06T15:56:10.318Z,18.20
2018-09-06T15:58:41.639Z,18.10
2018-09-06T16:01:13.592Z,18.20
2018-09-06T16:03:44.465Z,18.20
2018-09-06T16:06:17.428Z,18.30
2018-09-06T16:08:47.684Z,18.40
2018-09-06T16:11:22.146Z,18.30
2018-09-06T16:13:51.774Z,18.20
2018-09-06T16:16:28.470Z,18.10
2018-09-06T16:18:58.660Z,18.10
2018-09-06T16:21:32.884Z,18.10
2018-09-06T16:24:04.133Z,18.20
2018-09-06T16:26:37.438Z,18.20
2018-09-06T16:29:10.796Z,18.10
2018-09-06T16:31:41.256Z,18.20
2018-09-06T16:34:12.018Z,18.10
2018-09-06T16:36:41.927Z,18.10
2018-09-06T16:39:12.254Z,18.00
2018-09-06T16:41:42.033Z,18.00
2018-09-06T16:44:11.566Z,17.80
2018-09-06T16:46:40.912Z,17.60
2018-09-06T16:49:11.122Z,17.50
2018-09-06T16:51:41.621Z,17.60
2018-09-06T16:54:12.029Z,17.50
2018-09-06T16:56:43.488Z,17.50
2018-09-06T16:59:13.749Z,17.40
2018-09-06T17:01:44.342Z,17.10
2018-09-06T17:04:13.747Z,17.10
2018-09-06T17:06:42.905Z,17.00
2018-09-06T17:09:14.046Z,17.00
2018-09-06T17:11:44.469Z,16.90
2018-09-06T17:14:16.251Z,16.60
2018-09-06T17:16:46.219Z,16.30
2018-09-06T17:19:16.112Z,16.30
2018-09-06T17:21:45.436Z,16.40
2018-09-06T17:24:16.251Z,16.40
2018-09-06T17:26:47.092Z,16.10
2018-09-06T17:29:20.680Z,16.10
2018-09-06T17:31:52.016Z,16.10
2018-09-06T17:34:25.263Z,16.00
2018-09-06T17:36:54.573Z,15.80
2018-09-06T17:39:27.466Z,15.80
2018-09-06T17:41:57.645Z,15.70
2018-09-06T17:44:26.799Z,15.60
2018-09-06T17:47:03.365Z,15.50
2018-09-06T17:49:32.563Z,15.40
2018-09-06T17:52:01.677Z,15.30
2018-09-06T17:54:31.005Z,15.30
2018-09-06T17:57:00.647Z,15.20
2018-09-06T17:59:30.052Z,15.10
2018-09-06T18:01:59.234Z,14.90
2018-09-06T18:04:28.505Z,14.80
2018-09-06T18:06:57.632Z,14.80
2018-09-06T18:09:26.870Z,14.60
2018-09-06T18:11:56.530Z,14.50
2018-09-06T18:14:25.783Z,14.30
2018-09-06T18:16:57.027Z,14.30
2018-09-06T18:19:39.721Z,14.30
2018-09-06T18:22:25.846Z,14.30
2018-09-06T18:24:55.425Z,14.30
2018-09-06T18:27:25.243Z,14.20
2018-09-06T18:29:55.161Z,14.20
2018-09-06T18:32:24.920Z,14.20
2018-09-06T18:34:54.403Z,14.20
2018-09-06T18:37:24.844Z,14.10
2018-09-06T18:39:55.065Z,14.00
2018-09-06T18:42:24.328Z,13.90
2018-09-06T18:44:53.725Z,13.80
2018-09-06T18:47:22.858Z,13.80
2018-09-06T18:49:53.267Z,13.80
2018-09-06T18:52:23.370Z,13.70
2018-09-06T18:54:55.641Z,13.70
2018-09-06T18:57:26.069Z,13.50
2018-09-06T18:59:55.383Z,13.50
2018-09-06T19:02:24.840Z,13.50
2018-09-06T19:04:54.784Z,13.50
2018-09-06T19:07:24.618Z,13.50
2018-09-06T19:09:54.563Z,13.30
2018-09-06T19:12:24.310Z,13.20
2018-09-06T19:14:54.207Z,13.10
2018-09-06T19:17:23.994Z,13.10
2018-09-06T19:19:53.847Z,13.10
2018-09-06T19:22:23.664Z,13.20
2018-09-06T19:24:53.326Z,13.00
2018-09-06T19:27:22.725Z,13.00
2018-09-06T19:29:52.932Z,13.10
2018-09-06T19:32:22.379Z,13.10
2018-09-06T19:34:51.999Z,12.90
2018-09-06T19:37:21.366Z,12.80
2018-09-06T19:39:50.946Z,12.80
2018-09-06T19:42:20.531Z,12.70
2018-09-06T19:44:49.866Z,12.70
2018-09-06T19:47:19.581Z,12.70
2018-09-06T19:49:49.908Z,12.70
2018-09-06T19:52:21.534Z,12.60
2018-09-06T19:54:51.734Z,12.40
2018-09-06T19:57:22.719Z,12.40
2018-09-06T19:59:53.138Z,12.30
2018-09-06T20:02:23.561Z,12.20
2018-09-06T20:04:54.992Z,12.10
2018-09-06T20:07:24.797Z,12.20
2018-09-06T20:09:54.675Z,12.00
2018-09-06T20:12:25.824Z,12.10
2018-09-06T20:14:55.340Z,12.20
2018-09-06T20:17:25.109Z,12.20
2018-09-06T20:19:55.252Z,12.10
2018-09-06T20:22:25.175Z,12.00
2018-09-06T20:24:55.744Z,12.00
2018-09-06T20:27:24.924Z,12.00
2018-09-06T20:29:54.590Z,12.00
2018-09-06T20:32:23.778Z,11.90
2018-09-06T20:34:53.332Z,11.90
2018-09-06T20:37:22.499Z,11.90
2018-09-06T20:39:51.876Z,11.90
2018-09-06T20:42:21.445Z,11.70
2018-09-06T20:44:50.584Z,11.70
2018-09-06T20:47:19.969Z,11.70
2018-09-06T20:49:50.274Z,11.60
2018-09-06T20:52:19.740Z,11.60
2018-09-06T20:54:49.009Z,11.50
2018-09-06T20:57:18.485Z,11.50
2018-09-06T20:59:47.678Z,11.50
2018-09-06T21:02:22.533Z,11.40
2018-09-06T21:04:52.021Z,11.30
2018-09-06T21:07:21.144Z,11.20
2018-09-06T21:09:50.501Z,11.20
2018-09-06T21:12:20.185Z,11.30
2018-09-06T21:14:49.361Z,11.30
2018-09-06T21:17:18.999Z,11.30
2018-09-06T21:19:48.220Z,11.20
2018-09-06T21:22:17.254Z,11.10
2018-09-06T21:24:46.929Z,11.20
2018-09-06T21:27:16.474Z,11.20
2018-09-06T21:29:45.704Z,11.20
2018-09-06T21:32:14.904Z,11.20
2018-09-06T21:34:44.377Z,11.20
2018-09-06T21:37:13.471Z,11.20
2018-09-06T21:39:42.829Z,11.20
2018-09-06T21:42:12.001Z,11.10
2018-09-06T21:44:41.196Z,11.00
2018-09-06T21:47:10.783Z,10.90
2018-09-06T21:49:40.100Z,10.80
2018-09-06T21:52:09.251Z,10.80
2018-09-06T21:54:38.741Z,10.80
2018-09-06T21:57:07.959Z,10.70
2018-09-06T21:59:37.464Z,10.70
2018-09-06T22:02:11.115Z,10.70
2018-09-06T22:04:40.771Z,10.80
2018-09-06T22:07:10.043Z,10.80
2018-09-06T22:09:39.538Z,10.80
2018-09-06T22:12:13.116Z,10.80
2018-09-06T22:14:42.465Z,10.70
2018-09-06T22:17:12.157Z,10.70
2018-09-06T22:19:41.433Z,10.60
2018-09-06T22:22:10.760Z,10.60
2018-09-06T22:24:40.371Z,10.50
2018-09-06T22:27:09.635Z,10.40
2018-09-06T22:29:39.760Z,10.30
2018-09-06T22:32:08.898Z,10.40
2018-09-06T22:34:38.428Z,10.40
2018-09-06T22:37:07.843Z,10.40
2018-09-06T22:39:37.155Z,10.20
2018-09-06T22:42:07.556Z,10.10
2018-09-06T22:44:36.839Z,10.20
2018-09-06T22:47:06.176Z,10.20
2018-09-06T22:49:35.458Z,9.90
2018-09-06T22:52:05.171Z,10.00
2018-09-06T22:54:34.230Z,10.10
2018-09-06T22:57:03.755Z,10.10
2018-09-06T22:59:33.097Z,10.00
2018-09-06T23:02:02.660Z,10.00
2018-09-06T23:04:31.985Z,10.10
2018-09-06T23:07:01.433Z,10.20
2018-09-06T23:09:30.806Z,10.20
2018-09-06T23:12:00.339Z,10.20
2018-09-06T23:14:29.751Z,10.20
2018-09-06T23:16:59.097Z,10.10
2018-09-06T23:19:29.012Z,10.10
2018-09-06T23:21:58.523Z,10.00
2018-09-06T23:24:28.179Z,10.10
2018-09-06T23:26:57.400Z,10.20
2018-09-06T23:29:26.862Z,10.00
2018-09-06T23:31:56.338Z,10.10
2018-09-06T23:34:29.418Z,10.00
2018-09-06T23:36:58.694Z,10.20
2018-09-06T23:39:27.905Z,10.20
2018-09-06T23:41:57.172Z,10.30
2018-09-06T23:44:26.757Z,10.20
2018-09-06T23:46:56.791Z,10.00
2018-09-06T23:49:26.165Z,10.10
2018-09-06T23:51:55.300Z,10.20
2018-09-06T23:54:24.734Z,10.10
2018-09-06T23:56:54.203Z,10.00
2018-09-06T23:59:23.816Z,10.10
